createdAt,value
2022-10-11T00:01:09.503Z,14.41
2022-10-11T00:03:36.159Z,14.46
2022-10-11T00:06:02.908Z,14.46
2022-10-11T00:08:29.765Z,14.57
2022-10-11T00:10:58.684Z,14.69
2022-10-11T00:13:25.320Z,14.70
2022-10-11T00:15:51.952Z,14.69
2022-10-11T00:18:18.458Z,14.72
2022-10-11T00:20:44.899Z,14.60
2022-10-11T00:23:11.490Z,14.44
2022-10-11T00:25:37.975Z,14.37
2022-10-11T00:28:04.749Z,14.30
2022-10-11T00:30:31.893Z,14.27
2022-10-11T00:32:58.395Z,14.12
2022-10-11T00:35:25.370Z,14.04
2022-10-11T00:37:52.381Z,14.12
2022-10-11T00:40:20.268Z,14.12
2022-10-11T00:42:46.754Z,14.22
2022-10-11T00:45:31.918Z,14.32
2022-10-11T00:48:03.242Z,14.30
2022-10-11T00:50:31.736Z,14.03
2022-10-11T00:53:01.858Z,13.99
2022-10-11T00:55:35.218Z,14.05
2022-10-11T00:58:01.855Z,13.93
2022-10-11T01:00:28.393Z,13.86
2022-10-11T01:02:55.072Z,13.76
2022-10-11T01:05:30.287Z,13.71
2022-10-11T01:07:59.407Z,13.71
2022-10-11T01:10:27.202Z,13.70
2022-10-11T01:12:59.499Z,13.65
2022-10-11T01:15:32.385Z,13.64
2022-10-11T01:18:06.855Z,13.78
2022-10-11T01:20:42.839Z,13.92
2022-10-11T01:23:24.201Z,14.03
2022-10-11T01:26:14.480Z,13.97
2022-10-11T01:29:08.536Z,14.04
2022-10-11T01:31:40.563Z,13.97
2022-10-11T01:34:31.188Z,13.96
2022-10-11T01:36:57.546Z,13.99
2022-10-11T01:39:25.324Z,14.06
2022-10-11T01:41:55.964Z,13.99
2022-10-11T01:44:24.319Z,13.99
2022-10-11T01:46:51.966Z,13.82
2022-10-11T01:49:18.527Z,13.70
2022-10-11T01:51:47.770Z,13.64
2022-10-11T01:55:04.383Z,13.59
2022-10-11T01:57:53.412Z,13.47
2022-10-11T02:00:23.079Z,13.48
2022-10-11T02:03:10.896Z,13.27
2022-10-11T02:05:56.578Z,13.28
2022-10-11T02:08:36.955Z,13.51
2022-10-11T02:11:23.110Z,13.53
2022-10-11T02:13:54.702Z,13.64
2022-10-11T02:16:31.516Z,13.57
2022-10-11T02:18:58.692Z,13.14
2022-10-11T02:21:27.605Z,13.02
2022-10-11T02:24:00.160Z,13.14
2022-10-11T02:26:29.364Z,13.19
2022-10-11T02:28:57.822Z,13.25
2022-10-11T02:31:25.145Z,13.33
2022-10-11T02:34:27.584Z,13.46
2022-10-11T02:37:16.706Z,13.53
2022-10-11T02:40:16.651Z,13.64
2022-10-11T02:42:46.411Z,13.70
2022-10-11T02:45:25.621Z,13.59
2022-10-11T02:47:52.587Z,13.53
2022-10-11T02:50:19.230Z,13.60
2022-10-11T02:52:45.741Z,13.66
2022-10-11T02:55:12.206Z,13.78
2022-10-11T02:57:38.723Z,13.90
2022-10-11T03:00:06.077Z,13.69
2022-10-11T03:02:32.562Z,13.71
2022-10-11T03:04:58.994Z,13.78
2022-10-11T03:07:26.355Z,13.79
2022-10-11T03:09:52.901Z,13.86
2022-10-11T03:12:19.453Z,13.75
2022-10-11T03:14:45.906Z,13.81
2022-10-11T03:17:35.001Z,13.79
2022-10-11T03:19:58.837Z,13.77
2022-10-11T03:22:25.362Z,13.75
2022-10-11T03:24:51.803Z,13.74
2022-10-11T03:27:18.279Z,13.78
2022-10-11T03:29:44.744Z,13.73
2022-10-11T03:32:11.203Z,13.77
2022-10-11T03:34:37.665Z,13.63
2022-10-11T03:37:04.182Z,13.57
2022-10-11T03:39:30.746Z,13.63
2022-10-11T03:41:57.196Z,13.51
2022-10-11T03:44:23.706Z,13.56
2022-10-11T03:46:50.285Z,13.57
2022-10-11T03:49:16.953Z,13.59
2022-10-11T03:51:43.470Z,13.66
2022-10-11T03:54:09.958Z,13.69
2022-10-11T03:56:36.427Z,13.73
2022-10-11T03:59:02.944Z,13.60
2022-10-11T04:01:29.473Z,13.56
2022-10-11T04:03:56.884Z,13.56
2022-10-11T04:06:23.688Z,13.65
2022-10-11T04:08:50.211Z,13.59
2022-10-11T04:11:16.661Z,13.39
2022-10-11T04:13:43.204Z,13.37
2022-10-11T04:16:09.668Z,13.38
2022-10-11T04:18:36.138Z,13.39
2022-10-11T04:21:02.698Z,13.28
2022-10-11T04:23:31.342Z,13.33
2022-10-11T04:25:57.956Z,13.10
2022-10-11T04:28:24.753Z,12.96
2022-10-11T04:30:51.997Z,12.80
2022-10-11T04:33:18.504Z,12.70
2022-10-11T04:35:46.189Z,12.88
2022-10-11T04:38:12.743Z,12.92
2022-10-11T04:40:39.530Z,12.99
2022-10-11T04:43:06.473Z,12.98
2022-10-11T04:45:33.062Z,12.92
2022-10-11T04:48:00.047Z,12.86
2022-10-11T04:50:26.671Z,12.79
2022-10-11T04:52:53.501Z,12.62
2022-10-11T04:55:20.071Z,12.56
2022-10-11T04:57:46.703Z,12.59
2022-10-11T05:00:13.606Z,12.63
2022-10-11T05:02:40.058Z,12.79
2022-10-11T05:05:07.091Z,12.90
2022-10-11T05:07:33.520Z,12.80
2022-10-11T05:09:59.952Z,12.71
2022-10-11T05:12:26.433Z,12.60
2022-10-11T05:14:52.996Z,12.65
2022-10-11T05:17:19.431Z,12.69
2022-10-11T05:19:45.916Z,12.67
2022-10-11T05:22:12.385Z,12.69
2022-10-11T05:24:38.853Z,12.67
2022-10-11T05:27:05.746Z,12.72
2022-10-11T05:29:32.271Z,12.70
2022-10-11T05:31:59.679Z,12.98
2022-10-11T05:34:26.336Z,13.00
2022-10-11T05:36:52.896Z,13.02
2022-10-11T05:39:19.428Z,12.66
2022-10-11T05:41:46.454Z,12.55
2022-10-11T05:44:13.366Z,12.57
2022-10-11T05:46:39.889Z,12.54
2022-10-11T05:49:06.518Z,12.39
2022-10-11T05:51:35.949Z,12.37
2022-10-11T05:54:02.392Z,12.45
2022-10-11T05:56:28.847Z,12.65
2022-10-11T05:58:59.909Z,12.75
2022-10-11T06:01:28.669Z,12.79
2022-10-11T06:03:55.285Z,12.83
2022-10-11T06:06:21.981Z,12.89
2022-10-11T06:08:48.971Z,12.99
2022-10-11T06:11:18.484Z,13.07
2022-10-11T06:13:45.131Z,13.18
2022-10-11T06:16:11.931Z,13.06
2022-10-11T06:18:38.380Z,13.07
2022-10-11T06:21:05.147Z,13.06
2022-10-11T06:23:31.881Z,13.16
2022-10-11T06:26:03.704Z,13.24
2022-10-11T06:28:30.586Z,13.34
2022-10-11T06:30:57.565Z,13.48
2022-10-11T06:33:24.385Z,13.53
2022-10-11T06:35:57.532Z,13.57
2022-10-11T06:38:23.989Z,13.61
2022-10-11T06:40:50.442Z,13.64
2022-10-11T06:43:16.910Z,13.62
2022-10-11T06:45:43.360Z,13.68
2022-10-11T06:48:09.853Z,13.47
2022-10-11T06:50:58.577Z,13.69
2022-10-11T06:53:24.543Z,13.79
2022-10-11T06:55:50.991Z,13.75
2022-10-11T06:58:17.502Z,13.73
2022-10-11T07:00:44.101Z,13.80
2022-10-11T07:03:10.567Z,13.76
2022-10-11T07:05:37.003Z,13.85
2022-10-11T07:08:03.626Z,14.03
2022-10-11T07:10:30.079Z,14.10
2022-10-11T07:12:56.506Z,14.22
2022-10-11T07:15:23.037Z,14.33
2022-10-11T07:17:49.498Z,14.40
2022-10-11T07:20:15.964Z,14.49
2022-10-11T07:22:42.405Z,14.58
2022-10-11T07:25:08.930Z,14.66
2022-10-11T07:27:35.409Z,14.83
2022-10-11T07:30:01.860Z,14.93
2022-10-11T07:32:28.299Z,15.13
2022-10-11T07:34:54.770Z,15.33
2022-10-11T07:37:21.205Z,15.60
2022-10-11T07:39:49.214Z,15.80
2022-10-11T07:42:15.671Z,15.88
2022-10-11T07:44:42.218Z,15.90
2022-10-11T07:47:11.280Z,16.06
2022-10-11T07:49:38.110Z,16.28
2022-10-11T07:52:04.866Z,16.44
2022-10-11T07:54:31.454Z,16.62
2022-10-11T07:56:57.903Z,16.65
2022-10-11T07:59:24.403Z,16.75
2022-10-11T08:01:50.992Z,16.84
2022-10-11T08:04:17.613Z,16.86
2022-10-11T08:06:44.085Z,16.98
2022-10-11T08:09:10.635Z,16.92
2022-10-11T08:11:37.790Z,17.01
2022-10-11T08:14:05.918Z,16.97
2022-10-11T08:16:32.427Z,16.98
2022-10-11T08:18:58.915Z,17.03
2022-10-11T08:21:25.405Z,17.03
2022-10-11T08:23:51.852Z,17.11
2022-10-11T08:26:18.325Z,17.14
2022-10-11T08:28:44.933Z,17.24
2022-10-11T08:31:13.364Z,17.27
2022-10-11T08:33:40.308Z,17.12
2022-10-11T08:36:07.755Z,17.07
2022-10-11T08:38:36.230Z,17.09
2022-10-11T08:41:02.754Z,16.83
2022-10-11T08:43:46.089Z,16.78
2022-10-11T08:46:14.271Z,16.88
2022-10-11T08:48:42.111Z,17.01
2022-10-11T08:51:23.296Z,17.12
2022-10-11T08:54:28.174Z,17.09
2022-10-11T08:56:54.811Z,16.98
2022-10-11T08:59:30.788Z,16.91
2022-10-11T09:02:04.938Z,16.81
2022-10-11T09:04:31.408Z,16.84
2022-10-11T09:07:20.013Z,16.96
2022-10-11T09:09:56.128Z,16.88
2022-10-11T09:12:56.185Z,16.83
2022-10-11T09:15:25.551Z,16.95
2022-10-11T09:17:57.860Z,17.02
2022-10-11T09:20:52.974Z,17.07
2022-10-11T09:23:35.122Z,17.15
2022-10-11T09:26:06.573Z,17.15
2022-10-11T09:28:47.413Z,16.93
2022-10-11T09:31:13.913Z,16.93
2022-10-11T09:33:45.558Z,16.81
2022-10-11T09:36:27.415Z,16.85
2022-10-11T09:38:56.723Z,16.56
2022-10-11T09:41:38.264Z,16.55
2022-10-11T09:44:06.680Z,16.64
2022-10-11T09:46:40.605Z,16.84
2022-10-11T09:49:14.546Z,16.84
2022-10-11T09:51:46.584Z,16.97
2022-10-11T09:54:13.069Z,16.99
2022-10-11T09:56:44.399Z,17.07
2022-10-11T09:59:29.117Z,17.13
2022-10-11T10:02:08.028Z,17.14
2022-10-11T10:04:35.447Z,17.27
2022-10-11T10:07:12.071Z,17.32
2022-10-11T10:09:38.606Z,17.26
2022-10-11T10:12:12.287Z,17.60
2022-10-11T10:14:40.545Z,17.70
2022-10-11T10:17:15.841Z,17.83
2022-10-11T10:19:48.347Z,17.88
2022-10-11T10:22:20.661Z,18.04
2022-10-11T10:24:48.210Z,17.78
2022-10-11T10:27:14.642Z,17.87
2022-10-11T10:29:41.457Z,17.94
2022-10-11T10:32:15.321Z,18.02
2022-10-11T10:34:55.403Z,17.99
2022-10-11T10:37:28.085Z,18.10
2022-10-11T10:40:22.636Z,17.99
2022-10-11T10:42:50.030Z,17.87
2022-10-11T10:45:21.496Z,18.00
2022-10-11T10:47:57.266Z,17.95
2022-10-11T10:50:32.836Z,18.13
2022-10-11T10:53:34.740Z,18.20
2022-10-11T10:56:28.269Z,18.39
2022-10-11T10:59:10.427Z,18.47
2022-10-11T11:01:50.271Z,18.13
2022-10-11T11:04:16.618Z,18.20
2022-10-11T11:07:03.251Z,18.30
2022-10-11T11:09:53.850Z,18.66
2022-10-11T11:12:36.327Z,18.68
2022-10-11T11:15:04.244Z,18.66
2022-10-11T11:17:53.338Z,18.65
2022-10-11T11:20:41.484Z,18.79
2022-10-11T11:23:21.093Z,18.77
2022-10-11T11:26:04.331Z,18.73
2022-10-11T11:28:52.553Z,18.49
2022-10-11T11:31:33.375Z,18.45
2022-10-11T11:34:17.788Z,18.62
2022-10-11T11:36:54.792Z,18.71
2022-10-11T11:39:31.029Z,18.82
2022-10-11T11:42:19.486Z,18.85
2022-10-11T11:44:47.653Z,18.80
2022-10-11T11:47:29.436Z,18.90
2022-10-11T11:49:59.549Z,19.04
2022-10-11T11:52:35.432Z,19.04
2022-10-11T11:55:08.545Z,19.22
2022-10-11T11:57:53.893Z,19.34
2022-10-11T12:00:22.417Z,19.54
2022-10-11T12:02:57.927Z,19.50
2022-10-11T12:05:31.121Z,19.47
2022-10-11T12:08:01.428Z,19.27
2022-10-11T12:10:52.870Z,19.40
2022-10-11T12:13:22.592Z,19.53
2022-10-11T12:16:03.644Z,19.60
2022-10-11T12:18:31.062Z,19.69
2022-10-11T12:21:17.584Z,19.53
2022-10-11T12:23:47.182Z,19.60
2022-10-11T12:26:28.925Z,19.55
2022-10-11T12:29:39.588Z,19.57
2022-10-11T12:32:05.971Z,19.57
2022-10-11T12:37:17.465Z,19.39
2022-10-11T12:39:53.814Z,19.19
2022-10-11T12:42:25.604Z,19.63
2022-10-11T12:45:21.259Z,19.95
2022-10-11T12:48:13.265Z,19.92
2022-10-11T12:51:03.255Z,20.02
2022-10-11T12:53:37.591Z,20.08
2022-10-11T12:56:40.876Z,20.30
2022-10-11T12:59:17.040Z,20.27
2022-10-11T13:01:57.628Z,20.22
2022-10-11T13:04:29.240Z,20.37
2022-10-11T13:07:05.877Z,20.57
2022-10-11T13:09:41.582Z,20.32
2022-10-11T13:12:15.321Z,20.30
2022-10-11T13:14:44.617Z,20.47
2022-10-11T13:17:25.254Z,20.48
2022-10-11T13:20:05.357Z,20.56
2022-10-11T13:22:34.128Z,20.71
2022-10-11T13:25:07.142Z,20.51
2022-10-11T13:27:33.821Z,20.56
2022-10-11T13:30:02.494Z,20.68
2022-10-11T13:32:30.880Z,20.76
2022-10-11T13:35:24.909Z,20.98
2022-10-11T13:37:51.783Z,20.87
2022-10-11T13:40:20.234Z,21.04
2022-10-11T13:42:47.883Z,21.01
2022-10-11T13:45:16.935Z,21.02
2022-10-11T13:47:43.638Z,20.62
2022-10-11T13:50:16.069Z,20.54
2022-10-11T13:53:02.584Z,20.68
2022-10-11T13:55:32.137Z,20.75
2022-10-11T13:58:00.241Z,20.50
2022-10-11T14:00:35.707Z,20.11
2022-10-11T14:03:02.353Z,20.21
2022-10-11T14:05:34.912Z,20.52
2022-10-11T14:08:20.096Z,20.61
2022-10-11T14:10:47.595Z,20.74
2022-10-11T14:13:32.934Z,20.82
2022-10-11T14:16:02.453Z,20.80
2022-10-11T14:18:58.288Z,20.76
2022-10-11T14:21:43.207Z,20.77
2022-10-11T14:24:09.944Z,20.56
2022-10-11T14:26:40.792Z,20.44
2022-10-11T14:29:27.379Z,20.62
2022-10-11T14:31:58.911Z,20.49
2022-10-11T14:34:25.905Z,20.48
2022-10-11T14:36:55.110Z,20.45
2022-10-11T14:39:23.665Z,20.35
2022-10-11T14:41:51.226Z,20.40
2022-10-11T14:44:18.551Z,20.41
2022-10-11T14:46:46.196Z,20.38
2022-10-11T14:49:16.695Z,20.33
2022-10-11T14:51:44.493Z,20.39
2022-10-11T14:54:11.441Z,20.05
2022-10-11T14:56:38.324Z,20.00
2022-10-11T14:59:04.975Z,20.02
2022-10-11T15:01:31.561Z,20.06
2022-10-11T15:03:58.048Z,20.20
2022-10-11T15:06:27.099Z,20.34
2022-10-11T15:08:54.268Z,20.19
2022-10-11T15:11:22.238Z,20.13
2022-10-11T15:13:51.246Z,20.24
2022-10-11T15:16:20.558Z,20.33
2022-10-11T15:18:48.300Z,20.39
2022-10-11T15:21:14.837Z,20.37
2022-10-11T15:23:41.482Z,20.27
2022-10-11T15:26:13.761Z,20.07
2022-10-11T15:28:40.450Z,20.16
2022-10-11T15:31:08.299Z,20.10
2022-10-11T15:33:35.193Z,20.15
2022-10-11T15:36:01.769Z,20.04
2022-10-11T15:38:28.589Z,19.97
2022-10-11T15:40:55.389Z,19.54
2022-10-11T15:43:24.787Z,19.74
2022-10-11T15:45:52.016Z,19.75
2022-10-11T15:48:19.119Z,19.72
2022-10-11T15:50:46.131Z,19.72
2022-10-11T15:53:20.916Z,19.75
2022-10-11T15:55:52.908Z,19.55
2022-10-11T15:58:23.085Z,19.44
2022-10-11T16:00:51.819Z,19.23
2022-10-11T16:03:18.622Z,19.21
2022-10-11T16:05:45.254Z,19.27
2022-10-11T16:08:11.854Z,19.04
2022-10-11T16:10:38.728Z,19.06
2022-10-11T16:13:05.603Z,19.05
2022-10-11T16:15:32.072Z,18.83
2022-10-11T16:17:58.683Z,18.73
2022-10-11T16:20:27.383Z,18.72
2022-10-11T16:22:54.455Z,18.75
2022-10-11T16:25:21.449Z,18.71
2022-10-11T16:27:47.947Z,18.67
2022-10-11T16:30:15.356Z,18.62
2022-10-11T16:32:41.967Z,18.48
2022-10-11T16:35:08.997Z,18.40
2022-10-11T16:37:35.638Z,18.50
2022-10-11T16:40:02.223Z,18.35
2022-10-11T16:42:28.778Z,18.25
2022-10-11T16:44:55.528Z,18.27
2022-10-11T16:47:22.119Z,18.22
2022-10-11T16:49:48.680Z,18.20
2022-10-11T16:52:15.337Z,18.12
2022-10-11T16:54:46.366Z,18.16
2022-10-11T16:57:18.036Z,18.33
2022-10-11T16:59:44.565Z,18.21
2022-10-11T17:02:17.273Z,18.30
2022-10-11T17:04:44.044Z,18.18
2022-10-11T17:07:10.596Z,18.23
2022-10-11T17:09:40.384Z,18.00
2022-10-11T17:12:11.809Z,17.81
2022-10-11T17:14:39.462Z,17.66
2022-10-11T17:17:07.679Z,17.57
2022-10-11T17:19:34.602Z,17.43
2022-10-11T17:22:01.058Z,17.35
2022-10-11T17:24:27.618Z,17.36
2022-10-11T17:26:54.370Z,17.34
2022-10-11T17:29:21.196Z,17.26
2022-10-11T17:31:49.370Z,17.33
2022-10-11T17:34:16.646Z,17.18
2022-10-11T17:36:43.155Z,17.23
2022-10-11T17:39:15.912Z,17.08
2022-10-11T17:41:43.158Z,16.92
2022-10-11T17:44:10.430Z,16.92
2022-10-11T17:46:37.947Z,16.86
2022-10-11T17:49:08.313Z,16.92
2022-10-11T17:51:36.409Z,16.85
2022-10-11T17:54:03.711Z,16.97
2022-10-11T17:56:33.645Z,16.89
2022-10-11T17:59:01.644Z,16.87
2022-10-11T18:01:29.116Z,16.87
2022-10-11T18:04:01.407Z,16.90
2022-10-11T18:06:29.897Z,16.96
2022-10-11T18:08:56.886Z,16.94
2022-10-11T18:11:23.849Z,17.05
2022-10-11T18:13:52.562Z,17.24
2022-10-11T18:16:23.378Z,17.28
2022-10-11T18:18:49.927Z,17.27
2022-10-11T18:21:16.940Z,17.41
2022-10-11T18:23:43.584Z,17.57
2022-10-11T18:26:15.728Z,17.55
2022-10-11T18:28:42.970Z,17.47
2022-10-11T18:31:13.614Z,17.46
2022-10-11T18:33:41.216Z,17.53
2022-10-11T18:36:09.247Z,17.44
2022-10-11T18:38:36.233Z,17.39
2022-10-11T18:41:10.713Z,17.30
2022-10-11T18:43:38.371Z,16.94
2022-10-11T18:46:11.535Z,16.65
2022-10-11T18:48:42.473Z,16.55
2022-10-11T18:51:12.250Z,16.54
2022-10-11T18:53:38.913Z,16.35
2022-10-11T18:56:07.742Z,16.30
2022-10-11T18:58:35.611Z,16.11
2022-10-11T19:01:16.808Z,16.06
2022-10-11T19:03:45.448Z,15.83
2022-10-11T19:06:14.949Z,15.81
2022-10-11T19:08:41.502Z,15.84
2022-10-11T19:11:09.190Z,15.97
2022-10-11T19:13:36.045Z,15.87
2022-10-11T19:16:07.599Z,15.72
2022-10-11T19:18:34.601Z,15.81
2022-10-11T19:21:02.729Z,15.93
2022-10-11T19:23:38.120Z,16.13
2022-10-11T19:26:09.485Z,16.37
2022-10-11T19:28:36.226Z,16.57
2022-10-11T19:31:08.914Z,16.71
2022-10-11T19:33:36.159Z,16.85
2022-10-11T19:36:05.981Z,16.87
2022-10-11T19:38:33.391Z,16.85
2022-10-11T19:41:00.653Z,16.93
2022-10-11T19:43:27.986Z,17.00
2022-10-11T19:46:01.901Z,17.01
2022-10-11T19:48:28.791Z,17.04
2022-10-11T19:51:10.000Z,16.85
2022-10-11T19:53:36.519Z,16.33
2022-10-11T19:56:06.119Z,16.29
2022-10-11T19:58:32.650Z,16.22
2022-10-11T20:01:07.024Z,16.22
2022-10-11T20:03:33.975Z,16.23
2022-10-11T20:06:01.948Z,16.01
2022-10-11T20:08:28.572Z,15.83
2022-10-11T20:10:55.124Z,15.72
2022-10-11T20:13:21.691Z,15.80
2022-10-11T20:15:48.238Z,15.91
2022-10-11T20:18:14.955Z,15.86
2022-10-11T20:20:54.131Z,15.86
2022-10-11T20:23:25.142Z,15.83
2022-10-11T20:26:03.892Z,15.80
2022-10-11T20:28:32.043Z,15.62
2022-10-11T20:31:00.346Z,15.57
2022-10-11T20:33:28.516Z,15.48
2022-10-11T20:36:03.127Z,15.40
2022-10-11T20:38:30.810Z,15.47
2022-10-11T20:40:58.003Z,15.38
2022-10-11T20:43:25.031Z,15.40
2022-10-11T20:46:03.169Z,15.34
2022-10-11T20:48:30.758Z,15.40
2022-10-11T20:50:57.456Z,15.46
2022-10-11T20:53:24.645Z,15.47
2022-10-11T20:55:54.329Z,15.47
2022-10-11T20:58:22.006Z,15.47
2022-10-11T21:00:48.763Z,15.54
2022-10-11T21:03:15.925Z,15.72
2022-10-11T21:05:42.464Z,15.64
2022-10-11T21:08:09.483Z,15.72
2022-10-11T21:10:36.077Z,15.67
2022-10-11T21:13:02.711Z,15.71
2022-10-11T21:15:30.657Z,15.84
2022-10-11T21:17:57.278Z,15.79
2022-10-11T21:20:24.559Z,15.73
2022-10-11T21:22:51.292Z,15.79
2022-10-11T21:25:18.983Z,15.84
2022-10-11T21:27:45.409Z,15.99
2022-10-11T21:30:11.926Z,16.08
2022-10-11T21:32:38.463Z,16.23
2022-10-11T21:35:05.017Z,16.28
2022-10-11T21:37:31.933Z,16.43
2022-10-11T21:40:00.521Z,16.54
2022-10-11T21:42:29.533Z,16.44
2022-10-11T21:44:56.198Z,16.60
2022-10-11T21:47:22.733Z,16.68
2022-10-11T21:49:49.246Z,16.73
2022-10-11T21:52:15.900Z,16.49
2022-10-11T21:54:42.381Z,16.48
2022-10-11T21:57:08.978Z,16.48
2022-10-11T21:59:35.433Z,16.46
2022-10-11T22:02:02.348Z,16.24
2022-10-11T22:04:28.990Z,16.39
2022-10-11T22:06:55.535Z,16.41
2022-10-11T22:09:22.265Z,16.50
2022-10-11T22:11:48.849Z,16.43
2022-10-11T22:14:15.289Z,16.25
2022-10-11T22:16:41.740Z,15.76
2022-10-11T22:19:08.255Z,15.93
2022-10-11T22:21:34.726Z,15.81
2022-10-11T22:24:01.319Z,15.69
2022-10-11T22:26:29.628Z,15.71
2022-10-11T22:28:57.201Z,15.60
2022-10-11T22:31:23.744Z,15.59
2022-10-11T22:33:54.552Z,15.81
2022-10-11T22:36:21.017Z,15.87
2022-10-11T22:38:47.510Z,15.68
2022-10-11T22:41:14.107Z,15.64
2022-10-11T22:43:40.597Z,15.43
2022-10-11T22:46:07.755Z,15.17
2022-10-11T22:48:34.347Z,15.13
2022-10-11T22:51:01.373Z,15.26
2022-10-11T22:53:27.911Z,15.36
2022-10-11T22:55:54.508Z,15.28
2022-10-11T22:58:21.232Z,15.48
2022-10-11T23:00:48.507Z,15.47
2022-10-11T23:03:16.044Z,15.45
2022-10-11T23:05:42.754Z,15.46
2022-10-11T23:08:09.906Z,15.42
2022-10-11T23:10:40.045Z,15.43
2022-10-11T23:13:06.585Z,15.57
2022-10-11T23:15:33.094Z,15.76
2022-10-11T23:17:59.637Z,15.64
2022-10-11T23:20:26.119Z,15.59
2022-10-11T23:22:52.533Z,15.57
2022-10-11T23:25:19.092Z,15.53
2022-10-11T23:27:45.528Z,15.58
2022-10-11T23:30:12.740Z,15.46
2022-10-11T23:32:39.184Z,15.30
2022-10-11T23:35:06.018Z,15.32
2022-10-11T23:37:32.471Z,15.31
2022-10-11T23:39:59.025Z,15.38
2022-10-11T23:42:25.551Z,15.29
2022-10-11T23:44:52.010Z,15.53
2022-10-11T23:47:18.590Z,15.50
2022-10-11T23:49:45.095Z,15.35
2022-10-11T23:52:11.555Z,15.38
2022-10-11T23:54:38.003Z,15.38
2022-10-11T23:57:04.460Z,15.45
2022-10-11T23:59:31.022Z,15.36
